KMWL/MWL METAR and TAF weather

Enter ICAO airport designator
Station Type Date Time Source
KMWL METAR 2024/06/16 08:53 UTC NOAA

KMWL 160853Z AUTO 15009KT 10SM CLR 24/21 A2983 RMK AO2 SLP085 T02440206 58009


Station Type Date Time Source
KMWL Decoded METAR 2024/06/16 08:53 UTC NOAA

MINERAL WELLS AIRPORT, TX, United States (KMWL) 32-47N 098-04W 284M
Jun 16, 2024 - 04:53 AM EDT / 2024.06.16 0853 UTC
Wind: from the SSE (150 degrees) at 10 MPH (9 KT):0
Visibility: 10 mile(s):0
Sky conditions: clear
Temperature: 75.9 F (24.4 C)
Dew Point: 69.1 F (20.6 C)
Relative Humidity: 79%
Pressure (altimeter): 29.83 in. Hg (1010 hPa)
Pressure tendency: 0.03 inches (0.9 hPa) lower than three hours ago
ob: KMWL 160853Z AUTO 15009KT 10SM CLR 24/21 A2983 RMK AO2 SLP085 T02440206 58009
cycle: 9

Station Type Date Time Source
KMWL TAF UTC NOAA

Error!

Example: see airport list